This is the latest recevied weather packets stored in our database for station/object K7YVO. If no packets are shown the sender has not sent any weather packets the latest 10 day(s).
| Time | Temp. | Humidity | Pressure | Rain* | Wind** | Luminosity | Snow |
|---|---|---|---|---|---|---|---|
| 1777938906 | 22.78° C | 56% | 1013.5 hPa | 0 mm | - | 417 W/m² | - |
| 1777938602 | 23.33° C | 55% | 1013.2 hPa | 0 mm | - | 430 W/m² | - |
| 1777938300 | 23.89° C | 54% | 1013.2 hPa | 0 mm | - | 444 W/m² | - |
| 1777937996 | 23.33° C | 56% | 1013.4 hPa | 0 mm | - | 456 W/m² | - |
| 1777937691 | 22.22° C | 57% | 1013.5 hPa | 0 mm | - | 470 W/m² | - |
| 1777937389 | 22.78° C | 56% | 1013.5 hPa | 0 mm | - | 482 W/m² | - |
| 1777937086 | 22.22° C | 57% | 1013.5 hPa | 0 mm | - | 494 W/m² | - |
| 1777936783 | 22.78° C | 55% | 1013.6 hPa | 0 mm | - | 507 W/m² | - |
| 1777936479 | 22.78° C | 56% | 1013.6 hPa | 0 mm | - | 520 W/m² | - |
| 1777936175 | 21.67° C | 58% | 1013.7 hPa | 0 mm | - | 531 W/m² | - |
| 1777935872 | 21.67° C | 58% | 1013.7 hPa | 0 mm | - | 544 W/m² | - |
| 1777935572 | 22.22° C | 58% | 1013.9 hPa | 0 mm | - | 550 W/m² | - |
| 1777935268 | 22.22° C | 56% | 1013.8 hPa | 0 mm | - | 561 W/m² | - |
| 1777934965 | 21.67° C | 59% | 1013.7 hPa | 0 mm | - | 573 W/m² | - |
| 1777934662 | 22.22° C | 58% | 1013.8 hPa | 0 mm | - | 585 W/m² | - |
| 1777934359 | 21.11° C | 61% | 1013.7 hPa | 0 mm | - | 594 W/m² | - |
| 1777934054 | 21.67° C | 60% | 1014 hPa | 0 mm | - | 605 W/m² | - |
| 1777933751 | 21.67° C | 60% | 1014.1 hPa | 0 mm | - | 610 W/m² | - |
| 1777933448 | 21.67° C | 59% | 1014 hPa | 0 mm | - | 621 W/m² | - |
| 1777933146 | 22.22° C | 58% | 1013.8 hPa | 0 mm | - | 629 W/m² | - |
| 1777932842 | 21.67° C | 59% | 1014.1 hPa | 0 mm | - | 637 W/m² | - |
| 1777932540 | 21.67° C | 59% | 1014.2 hPa | 0 mm | - | 643 W/m² | - |
| 1777932236 | 22.22° C | 60% | 1014.4 hPa | 0 mm | - | 653 W/m² | - |
| 1777931933 | 21.67° C | 59% | 1014.5 hPa | 0 mm | - | 661 W/m² | - |
| 1777931630 | 21.11° C | 62% | 1014.3 hPa | 0 mm | - | 671 W/m² | - |
* Rain latest hour (hover to see other rain measurements)
** Current wind speed in m/s (hover to see current wind gust speed)